Terminal Aerodrome Forecast
Issued by NWS Omaha/Valley, NE

Home | Current Version | Previous Version | Graphics & Text | Print | Product List | Glossary On
Versions: 1 2 3 4 5 6 7 8 9 10 11 12 13
000
FTUS43 KOAX 241120
TAFOFK
TAF
KOFK 241120Z 2412/2512 28010KT P6SM SKC
     FM241600 28012G21KT P6SM SKC
     FM242000 31018G26KT P6SM SKC
     FM250100 33007KT P6SM SKC=

USA.gov is the U.S. government's official web portal to all federal, state and local government web resources and services.